sensor_id;sensor_type;location;lat;lon;timestamp;P1;durP1;ratioP1;P2;durP2;ratioP2
69185;SDS011;56298;49.246;9.410;2022-12-18T00:01:26;56.25;;;36.03;;
69185;SDS011;56298;49.246;9.410;2022-12-18T00:03:53;56.27;;;35.77;;
69185;SDS011;56298;49.246;9.410;2022-12-18T00:06:20;53.45;;;37.03;;
69185;SDS011;56298;49.246;9.410;2022-12-18T00:08:46;56.38;;;37.13;;
69185;SDS011;56298;49.246;9.410;2022-12-18T00:11:16;51.13;;;34.13;;
69185;SDS011;56298;49.246;9.410;2022-12-18T00:13:43;54.50;;;36.47;;
69185;SDS011;56298;49.246;9.410;2022-12-18T00:16:11;55.55;;;35.47;;
69185;SDS011;56298;49.246;9.410;2022-12-18T00:18:37;54.40;;;34.45;;
69185;SDS011;56298;49.246;9.410;2022-12-18T00:21:04;55.50;;;35.13;;
69185;SDS011;56298;49.246;9.410;2022-12-18T00:23:32;57.03;;;36.50;;
69185;SDS011;56298;49.246;9.410;2022-12-18T00:26:02;56.28;;;36.72;;
69185;SDS011;56298;49.246;9.410;2022-12-18T00:28:29;59.42;;;36.50;;
69185;SDS011;56298;49.246;9.410;2022-12-18T00:31:04;56.80;;;35.92;;
69185;SDS011;56298;49.246;9.410;2022-12-18T00:33:31;58.10;;;36.85;;
69185;SDS011;56298;49.246;9.410;2022-12-18T00:36:04;56.70;;;34.73;;
69185;SDS011;56298;49.246;9.410;2022-12-18T00:38:31;61.25;;;35.80;;
69185;SDS011;56298;49.246;9.410;2022-12-18T00:40:56;55.72;;;35.78;;
69185;SDS011;56298;49.246;9.410;2022-12-18T00:43:21;63.67;;;36.40;;
69185;SDS011;56298;49.246;9.410;2022-12-18T00:45:46;55.87;;;33.73;;
69185;SDS011;56298;49.246;9.410;2022-12-18T00:48:12;56.03;;;35.00;;
69185;SDS011;56298;49.246;9.410;2022-12-18T00:50:37;60.50;;;35.33;;
69185;SDS011;56298;49.246;9.410;2022-12-18T00:53:03;55.87;;;34.57;;
69185;SDS011;56298;49.246;9.410;2022-12-18T00:55:28;59.73;;;35.33;;
69185;SDS011;56298;49.246;9.410;2022-12-18T00:57:53;55.30;;;34.40;;
69185;SDS011;56298;49.246;9.410;2022-12-18T01:00:19;56.73;;;35.40;;
69185;SDS011;56298;49.246;9.410;2022-12-18T01:02:44;58.70;;;37.00;;
69185;SDS011;56298;49.246;9.410;2022-12-18T01:05:10;60.77;;;36.07;;
69185;SDS011;56298;49.246;9.410;2022-12-18T01:07:37;60.97;;;35.75;;
69185;SDS011;56298;49.246;9.410;2022-12-18T01:10:02;59.17;;;37.03;;
69185;SDS011;56298;49.246;9.410;2022-12-18T01:12:29;58.40;;;36.13;;
69185;SDS011;56298;49.246;9.410;2022-12-18T01:14:54;61.30;;;36.63;;
69185;SDS011;56298;49.246;9.410;2022-12-18T01:17:19;59.27;;;35.73;;
69185;SDS011;56298;49.246;9.410;2022-12-18T01:19:44;59.27;;;37.10;;
69185;SDS011;56298;49.246;9.410;2022-12-18T01:22:10;59.37;;;37.43;;
69185;SDS011;56298;49.246;9.410;2022-12-18T01:24:35;54.37;;;35.60;;
69185;SDS011;56298;49.246;9.410;2022-12-18T01:27:00;60.10;;;36.70;;
69185;SDS011;56298;49.246;9.410;2022-12-18T01:29:26;61.30;;;38.07;;
69185;SDS011;56298;49.246;9.410;2022-12-18T01:31:54;64.17;;;38.30;;
69185;SDS011;56298;49.246;9.410;2022-12-18T01:34:20;60.30;;;37.50;;
69185;SDS011;56298;49.246;9.410;2022-12-18T01:36:45;58.63;;;37.07;;
69185;SDS011;56298;49.246;9.410;2022-12-18T01:39:11;64.20;;;37.00;;
69185;SDS011;56298;49.246;9.410;2022-12-18T01:41:38;60.97;;;36.60;;
69185;SDS011;56298;49.246;9.410;2022-12-18T01:47:28;61.75;;;36.85;;
69185;SDS011;56298;49.246;9.410;2022-12-18T01:49:59;64.40;;;37.33;;
69185;SDS011;56298;49.246;9.410;2022-12-18T01:52:28;57.95;;;36.53;;
69185;SDS011;56298;49.246;9.410;2022-12-18T01:54:59;61.13;;;36.58;;
69185;SDS011;56298;49.246;9.410;2022-12-18T01:57:26;62.58;;;36.85;;
69185;SDS011;56298;49.246;9.410;2022-12-18T01:59:53;61.83;;;36.87;;
69185;SDS011;56298;49.246;9.410;2022-12-18T02:02:24;59.30;;;37.97;;
69185;SDS011;56298;49.246;9.410;2022-12-18T02:04:52;60.17;;;36.77;;
69185;SDS011;56298;49.246;9.410;2022-12-18T02:13:02;61.42;;;37.55;;
69185;SDS011;56298;49.246;9.410;2022-12-18T02:15:42;66.20;;;37.42;;
69185;SDS011;56298;49.246;9.410;2022-12-18T02:18:20;65.18;;;38.15;;
69185;SDS011;56298;49.246;9.410;2022-12-18T02:21:01;64.43;;;38.73;;
69185;SDS011;56298;49.246;9.410;2022-12-18T02:29:01;64.25;;;37.08;;
69185;SDS011;56298;49.246;9.410;2022-12-18T02:31:38;60.83;;;37.97;;
69185;SDS011;56298;49.246;9.410;2022-12-18T02:34:17;63.53;;;39.38;;
69185;SDS011;56298;49.246;9.410;2022-12-18T02:36:44;59.75;;;38.40;;
69185;SDS011;56298;49.246;9.410;2022-12-18T02:39:11;59.42;;;36.75;;
69185;SDS011;56298;49.246;9.410;2022-12-18T02:41:38;61.08;;;37.85;;
69185;SDS011;56298;49.246;9.410;2022-12-18T02:44:08;62.58;;;36.78;;
69185;SDS011;56298;49.246;9.410;2022-12-18T02:46:37;63.58;;;37.20;;
69185;SDS011;56298;49.246;9.410;2022-12-18T02:57:34;66.20;;;39.17;;
69185;SDS011;56298;49.246;9.410;2022-12-18T03:03:24;63.17;;;38.50;;
69185;SDS011;56298;49.246;9.410;2022-12-18T03:06:12;70.35;;;38.05;;
69185;SDS011;56298;49.246;9.410;2022-12-18T03:08:46;63.13;;;37.60;;
69185;SDS011;56298;49.246;9.410;2022-12-18T03:11:15;64.90;;;38.50;;
69185;SDS011;56298;49.246;9.410;2022-12-18T03:14:01;66.23;;;39.33;;
69185;SDS011;56298;49.246;9.410;2022-12-18T03:16:28;67.22;;;39.40;;
69185;SDS011;56298;49.246;9.410;2022-12-18T03:18:57;67.90;;;37.20;;
69185;SDS011;56298;49.246;9.410;2022-12-18T03:21:31;66.85;;;39.90;;
69185;SDS011;56298;49.246;9.410;2022-12-18T03:24:01;68.35;;;39.10;;
69185;SDS011;56298;49.246;9.410;2022-12-18T03:26:32;66.68;;;38.25;;
69185;SDS011;56298;49.246;9.410;2022-12-18T03:29:07;67.93;;;38.90;;
69185;SDS011;56298;49.246;9.410;2022-12-18T03:31:37;66.53;;;39.13;;
69185;SDS011;56298;49.246;9.410;2022-12-18T03:34:09;69.75;;;39.10;;
69185;SDS011;56298;49.246;9.410;2022-12-18T03:36:38;67.23;;;39.37;;
69185;SDS011;56298;49.246;9.410;2022-12-18T03:39:03;63.70;;;37.93;;
69185;SDS011;56298;49.246;9.410;2022-12-18T03:41:33;63.33;;;37.70;;
69185;SDS011;56298;49.246;9.410;2022-12-18T03:44:09;63.65;;;37.70;;
69185;SDS011;56298;49.246;9.410;2022-12-18T03:52:03;62.75;;;37.30;;
69185;SDS011;56298;49.246;9.410;2022-12-18T03:54:31;67.45;;;38.53;;
69185;SDS011;56298;49.246;9.410;2022-12-18T03:57:01;69.97;;;38.55;;
69185;SDS011;56298;49.246;9.410;2022-12-18T03:59:37;67.03;;;37.08;;
69185;SDS011;56298;49.246;9.410;2022-12-18T04:02:04;65.33;;;37.27;;
69185;SDS011;56298;49.246;9.410;2022-12-18T04:04:31;66.00;;;37.25;;
69185;SDS011;56298;49.246;9.410;2022-12-18T04:06:58;65.65;;;36.20;;
69185;SDS011;56298;49.246;9.410;2022-12-18T04:09:24;68.97;;;36.70;;
69185;SDS011;56298;49.246;9.410;2022-12-18T04:11:51;64.15;;;36.72;;
69185;SDS011;56298;49.246;9.410;2022-12-18T04:14:16;66.05;;;36.83;;
69185;SDS011;56298;49.246;9.410;2022-12-18T04:16:42;63.10;;;37.53;;
69185;SDS011;56298;49.246;9.410;2022-12-18T04:19:07;62.67;;;37.27;;
69185;SDS011;56298;49.246;9.410;2022-12-18T04:21:32;61.97;;;35.13;;
69185;SDS011;56298;49.246;9.410;2022-12-18T04:23:58;64.20;;;38.50;;
69185;SDS011;56298;49.246;9.410;2022-12-18T04:26:23;65.53;;;37.40;;
69185;SDS011;56298;49.246;9.410;2022-12-18T04:28:48;67.43;;;37.97;;
69185;SDS011;56298;49.246;9.410;2022-12-18T04:31:14;67.30;;;36.78;;
69185;SDS011;56298;49.246;9.410;2022-12-18T04:33:39;66.53;;;37.90;;
69185;SDS011;56298;49.246;9.410;2022-12-18T04:36:04;61.13;;;37.07;;
69185;SDS011;56298;49.246;9.410;2022-12-18T04:38:30;67.63;;;37.53;;
69185;SDS011;56298;49.246;9.410;2022-12-18T04:40:55;64.37;;;36.90;;
69185;SDS011;56298;49.246;9.410;2022-12-18T04:43:20;63.23;;;36.07;;
69185;SDS011;56298;49.246;9.410;2022-12-18T04:45:46;61.37;;;36.10;;
69185;SDS011;56298;49.246;9.410;2022-12-18T04:48:11;60.23;;;35.27;;
69185;SDS011;56298;49.246;9.410;2022-12-18T04:50:36;62.80;;;33.87;;
69185;SDS011;56298;49.246;9.410;2022-12-18T04:53:01;57.77;;;35.50;;
69185;SDS011;56298;49.246;9.410;2022-12-18T04:55:27;66.73;;;37.30;;
69185;SDS011;56298;49.246;9.410;2022-12-18T04:57:52;65.28;;;35.60;;
69185;SDS011;56298;49.246;9.410;2022-12-18T05:00:18;61.60;;;35.90;;
69185;SDS011;56298;49.246;9.410;2022-12-18T05:02:44;60.75;;;34.00;;
69185;SDS011;56298;49.246;9.410;2022-12-18T05:05:09;66.03;;;36.10;;
69185;SDS011;56298;49.246;9.410;2022-12-18T05:07:34;64.33;;;36.20;;
69185;SDS011;56298;49.246;9.410;2022-12-18T05:10:00;62.97;;;33.67;;
69185;SDS011;56298;49.246;9.410;2022-12-18T05:12:25;61.07;;;33.70;;
69185;SDS011;56298;49.246;9.410;2022-12-18T05:14:50;62.73;;;35.33;;
69185;SDS011;56298;49.246;9.410;2022-12-18T05:17:16;64.13;;;36.07;;
69185;SDS011;56298;49.246;9.410;2022-12-18T05:19:41;58.53;;;34.60;;
69185;SDS011;56298;49.246;9.410;2022-12-18T05:22:08;65.73;;;34.57;;
69185;SDS011;56298;49.246;9.410;2022-12-18T05:24:33;62.38;;;34.00;;
69185;SDS011;56298;49.246;9.410;2022-12-18T05:26:59;60.90;;;33.80;;
69185;SDS011;56298;49.246;9.410;2022-12-18T05:29:24;58.53;;;33.83;;
69185;SDS011;56298;49.246;9.410;2022-12-18T05:31:49;67.60;;;34.83;;
69185;SDS011;56298;49.246;9.410;2022-12-18T05:34:15;61.23;;;35.43;;
69185;SDS011;56298;49.246;9.410;2022-12-18T05:36:40;63.70;;;34.93;;
69185;SDS011;56298;49.246;9.410;2022-12-18T05:39:05;59.70;;;35.27;;
69185;SDS011;56298;49.246;9.410;2022-12-18T05:41:31;63.63;;;34.70;;
69185;SDS011;56298;49.246;9.410;2022-12-18T05:43:56;60.80;;;34.70;;
69185;SDS011;56298;49.246;9.410;2022-12-18T05:46:23;60.47;;;35.63;;
69185;SDS011;56298;49.246;9.410;2022-12-18T05:48:49;54.92;;;31.55;;
69185;SDS011;56298;49.246;9.410;2022-12-18T05:51:16;64.28;;;34.42;;
69185;SDS011;56298;49.246;9.410;2022-12-18T05:53:43;63.67;;;34.03;;
69185;SDS011;56298;49.246;9.410;2022-12-18T05:56:11;63.78;;;34.22;;
69185;SDS011;56298;49.246;9.410;2022-12-18T05:58:38;60.78;;;34.30;;
69185;SDS011;56298;49.246;9.410;2022-12-18T06:01:11;60.97;;;33.77;;
69185;SDS011;56298;49.246;9.410;2022-12-18T06:03:41;61.40;;;33.72;;
69185;SDS011;56298;49.246;9.410;2022-12-18T06:06:16;60.50;;;32.83;;
69185;SDS011;56298;49.246;9.410;2022-12-18T06:08:43;62.90;;;33.58;;
69185;SDS011;56298;49.246;9.410;2022-12-18T06:11:09;60.35;;;33.15;;
69185;SDS011;56298;49.246;9.410;2022-12-18T06:13:35;59.60;;;32.00;;
69185;SDS011;56298;49.246;9.410;2022-12-18T06:16:06;60.37;;;32.20;;
69185;SDS011;56298;49.246;9.410;2022-12-18T06:18:32;60.13;;;31.38;;
69185;SDS011;56298;49.246;9.410;2022-12-18T06:20:58;58.87;;;32.33;;
69185;SDS011;56298;49.246;9.410;2022-12-18T06:23:24;57.03;;;31.00;;
69185;SDS011;56298;49.246;9.410;2022-12-18T06:25:50;58.03;;;31.40;;
69185;SDS011;56298;49.246;9.410;2022-12-18T06:28:15;57.30;;;31.47;;
69185;SDS011;56298;49.246;9.410;2022-12-18T06:30:43;61.80;;;31.73;;
69185;SDS011;56298;49.246;9.410;2022-12-18T06:33:09;59.42;;;30.35;;
69185;SDS011;56298;49.246;9.410;2022-12-18T06:35:34;58.57;;;30.00;;
69185;SDS011;56298;49.246;9.410;2022-12-18T06:38:00;58.38;;;29.77;;
69185;SDS011;56298;49.246;9.410;2022-12-18T06:40:26;58.08;;;31.17;;
69185;SDS011;56298;49.246;9.410;2022-12-18T06:42:51;56.10;;;30.73;;
69185;SDS011;56298;49.246;9.410;2022-12-18T06:45:17;61.70;;;32.13;;
69185;SDS011;56298;49.246;9.410;2022-12-18T06:47:42;62.77;;;31.10;;
69185;SDS011;56298;49.246;9.410;2022-12-18T06:50:08;64.20;;;32.37;;
69185;SDS011;56298;49.246;9.410;2022-12-18T06:52:33;62.47;;;30.97;;
69185;SDS011;56298;49.246;9.410;2022-12-18T06:54:59;62.20;;;30.52;;
69185;SDS011;56298;49.246;9.410;2022-12-18T06:57:24;65.10;;;31.15;;
69185;SDS011;56298;49.246;9.410;2022-12-18T06:59:50;59.10;;;30.60;;
69185;SDS011;56298;49.246;9.410;2022-12-18T07:02:15;64.93;;;31.73;;
69185;SDS011;56298;49.246;9.410;2022-12-18T07:04:41;60.93;;;31.47;;
69185;SDS011;56298;49.246;9.410;2022-12-18T07:07:06;64.20;;;32.33;;
69185;SDS011;56298;49.246;9.410;2022-12-18T07:09:31;63.33;;;31.17;;
69185;SDS011;56298;49.246;9.410;2022-12-18T07:11:57;63.67;;;33.13;;
69185;SDS011;56298;49.246;9.410;2022-12-18T07:14:22;59.47;;;31.33;;
69185;SDS011;56298;49.246;9.410;2022-12-18T07:16:47;63.13;;;32.70;;
69185;SDS011;56298;49.246;9.410;2022-12-18T07:19:12;64.17;;;32.83;;
69185;SDS011;56298;49.246;9.410;2022-12-18T07:21:38;64.20;;;33.80;;
69185;SDS011;56298;49.246;9.410;2022-12-18T07:24:03;63.57;;;33.43;;
69185;SDS011;56298;49.246;9.410;2022-12-18T07:26:29;69.72;;;32.83;;
69185;SDS011;56298;49.246;9.410;2022-12-18T07:28:55;61.73;;;33.03;;
69185;SDS011;56298;49.246;9.410;2022-12-18T07:31:22;62.33;;;33.38;;
69185;SDS011;56298;49.246;9.410;2022-12-18T07:33:48;60.92;;;32.75;;
69185;SDS011;56298;49.246;9.410;2022-12-18T07:36:14;65.33;;;32.27;;
69185;SDS011;56298;49.246;9.410;2022-12-18T07:38:40;61.42;;;33.08;;
69185;SDS011;56298;49.246;9.410;2022-12-18T07:41:07;66.75;;;34.70;;
69185;SDS011;56298;49.246;9.410;2022-12-18T07:43:35;64.10;;;33.17;;
69185;SDS011;56298;49.246;9.410;2022-12-18T07:46:01;67.03;;;33.33;;
69185;SDS011;56298;49.246;9.410;2022-12-18T07:48:27;61.92;;;33.60;;
69185;SDS011;56298;49.246;9.410;2022-12-18T07:50:53;59.67;;;32.83;;
69185;SDS011;56298;49.246;9.410;2022-12-18T07:53:18;67.03;;;34.10;;
69185;SDS011;56298;49.246;9.410;2022-12-18T07:55:43;69.40;;;35.80;;
69185;SDS011;56298;49.246;9.410;2022-12-18T07:58:09;66.00;;;32.97;;
69185;SDS011;56298;49.246;9.410;2022-12-18T08:00:34;64.53;;;33.80;;
69185;SDS011;56298;49.246;9.410;2022-12-18T08:03:00;67.87;;;34.83;;
69185;SDS011;56298;49.246;9.410;2022-12-18T08:05:25;61.45;;;33.20;;
69185;SDS011;56298;49.246;9.410;2022-12-18T08:07:51;66.83;;;35.53;;
69185;SDS011;56298;49.246;9.410;2022-12-18T08:10:16;60.97;;;34.60;;
69185;SDS011;56298;49.246;9.410;2022-12-18T08:12:42;66.75;;;35.25;;
69185;SDS011;56298;49.246;9.410;2022-12-18T08:15:08;63.10;;;36.70;;
69185;SDS011;56298;49.246;9.410;2022-12-18T08:17:33;65.80;;;35.33;;
69185;SDS011;56298;49.246;9.410;2022-12-18T08:19:59;64.57;;;36.03;;
69185;SDS011;56298;49.246;9.410;2022-12-18T08:22:24;69.20;;;36.23;;
69185;SDS011;56298;49.246;9.410;2022-12-18T08:24:50;70.53;;;37.17;;
69185;SDS011;56298;49.246;9.410;2022-12-18T08:27:15;63.37;;;35.40;;
69185;SDS011;56298;49.246;9.410;2022-12-18T08:29:40;67.30;;;37.97;;
69185;SDS011;56298;49.246;9.410;2022-12-18T08:34:53;62.25;;;35.53;;
69185;SDS011;56298;49.246;9.410;2022-12-18T08:37:19;64.63;;;36.63;;
69185;SDS011;56298;49.246;9.410;2022-12-18T08:39:44;61.35;;;36.63;;
69185;SDS011;56298;49.246;9.410;2022-12-18T08:42:09;66.47;;;35.50;;
69185;SDS011;56298;49.246;9.410;2022-12-18T08:44:56;62.53;;;35.92;;
69185;SDS011;56298;49.246;9.410;2022-12-18T08:47:22;65.87;;;36.07;;
69185;SDS011;56298;49.246;9.410;2022-12-18T08:49:47;62.77;;;36.40;;
69185;SDS011;56298;49.246;9.410;2022-12-18T08:52:12;59.87;;;35.27;;
69185;SDS011;56298;49.246;9.410;2022-12-18T08:54:37;63.17;;;37.10;;
69185;SDS011;56298;49.246;9.410;2022-12-18T08:57:03;63.80;;;35.83;;
69185;SDS011;56298;49.246;9.410;2022-12-18T08:59:28;61.30;;;35.47;;
69185;SDS011;56298;49.246;9.410;2022-12-18T09:01:53;65.00;;;36.87;;
69185;SDS011;56298;49.246;9.410;2022-12-18T09:04:20;67.33;;;37.30;;
69185;SDS011;56298;49.246;9.410;2022-12-18T09:06:45;65.73;;;36.13;;
69185;SDS011;56298;49.246;9.410;2022-12-18T09:09:10;64.40;;;36.10;;
69185;SDS011;56298;49.246;9.410;2022-12-18T09:11:36;61.20;;;35.63;;
69185;SDS011;56298;49.246;9.410;2022-12-18T09:14:02;68.27;;;37.47;;
69185;SDS011;56298;49.246;9.410;2022-12-18T09:16:27;61.27;;;38.00;;
69185;SDS011;56298;49.246;9.410;2022-12-18T09:18:57;65.05;;;37.00;;
69185;SDS011;56298;49.246;9.410;2022-12-18T09:21:27;64.03;;;36.30;;
69185;SDS011;56298;49.246;9.410;2022-12-18T09:23:55;61.65;;;36.05;;
69185;SDS011;56298;49.246;9.410;2022-12-18T09:26:21;59.88;;;35.42;;
69185;SDS011;56298;49.246;9.410;2022-12-18T09:28:47;66.32;;;37.83;;
69185;SDS011;56298;49.246;9.410;2022-12-18T09:31:13;61.70;;;36.30;;
69185;SDS011;56298;49.246;9.410;2022-12-18T09:33:39;60.47;;;37.70;;
69185;SDS011;56298;49.246;9.410;2022-12-18T09:36:05;64.77;;;37.37;;
69185;SDS011;56298;49.246;9.410;2022-12-18T09:38:32;60.00;;;36.58;;
69185;SDS011;56298;49.246;9.410;2022-12-18T09:41:05;56.60;;;36.27;;
69185;SDS011;56298;49.246;9.410;2022-12-18T09:43:43;61.55;;;36.72;;
69185;SDS011;56298;49.246;9.410;2022-12-18T09:46:15;55.65;;;37.17;;
69185;SDS011;56298;49.246;9.410;2022-12-18T09:48:45;59.50;;;35.10;;
69185;SDS011;56298;49.246;9.410;2022-12-18T09:51:15;61.15;;;35.33;;
69185;SDS011;56298;49.246;9.410;2022-12-18T09:53:50;53.53;;;33.63;;
69185;SDS011;56298;49.246;9.410;2022-12-18T09:56:19;57.10;;;33.53;;
69185;SDS011;56298;49.246;9.410;2022-12-18T10:01:24;58.92;;;32.97;;
69185;SDS011;56298;49.246;9.410;2022-12-18T10:03:51;56.03;;;32.28;;
69185;SDS011;56298;49.246;9.410;2022-12-18T10:14:29;57.55;;;35.97;;
69185;SDS011;56298;49.246;9.410;2022-12-18T10:27:51;56.80;;;34.83;;
69185;SDS011;56298;49.246;9.410;2022-12-18T10:30:21;60.93;;;35.93;;
69185;SDS011;56298;49.246;9.410;2022-12-18T10:32:47;56.65;;;34.50;;
69185;SDS011;56298;49.246;9.410;2022-12-18T10:35:20;55.37;;;34.40;;
69185;SDS011;56298;49.246;9.410;2022-12-18T10:40:28;55.40;;;34.20;;
69185;SDS011;56298;49.246;9.410;2022-12-18T10:43:11;60.63;;;34.97;;
69185;SDS011;56298;49.246;9.410;2022-12-18T10:45:37;59.53;;;34.90;;
69185;SDS011;56298;49.246;9.410;2022-12-18T10:48:03;60.57;;;36.67;;
69185;SDS011;56298;49.246;9.410;2022-12-18T10:50:30;56.73;;;35.07;;
69185;SDS011;56298;49.246;9.410;2022-12-18T10:53:01;60.80;;;34.97;;
69185;SDS011;56298;49.246;9.410;2022-12-18T10:55:32;59.58;;;37.03;;
69185;SDS011;56298;49.246;9.410;2022-12-18T10:58:13;56.65;;;33.33;;
69185;SDS011;56298;49.246;9.410;2022-12-18T11:00:46;55.88;;;34.42;;
69185;SDS011;56298;49.246;9.410;2022-12-18T11:03:33;55.42;;;34.92;;
69185;SDS011;56298;49.246;9.410;2022-12-18T11:06:07;52.28;;;33.10;;
69185;SDS011;56298;49.246;9.410;2022-12-18T11:08:41;55.45;;;34.45;;
69185;SDS011;56298;49.246;9.410;2022-12-18T11:11:15;53.58;;;33.83;;
69185;SDS011;56298;49.246;9.410;2022-12-18T11:13:55;58.03;;;33.53;;
69185;SDS011;56298;49.246;9.410;2022-12-18T11:16:26;56.53;;;34.58;;
69185;SDS011;56298;49.246;9.410;2022-12-18T11:18:52;54.92;;;33.50;;
69185;SDS011;56298;49.246;9.410;2022-12-18T11:21:17;52.47;;;33.47;;
69185;SDS011;56298;49.246;9.410;2022-12-18T11:23:47;50.22;;;32.97;;
69185;SDS011;56298;49.246;9.410;2022-12-18T11:26:15;59.95;;;34.75;;
69185;SDS011;56298;49.246;9.410;2022-12-18T11:31:12;55.15;;;32.75;;
69185;SDS011;56298;49.246;9.410;2022-12-18T11:33:38;54.87;;;34.07;;
69185;SDS011;56298;49.246;9.410;2022-12-18T11:36:06;55.92;;;33.25;;
69185;SDS011;56298;49.246;9.410;2022-12-18T11:38:38;56.20;;;33.87;;
69185;SDS011;56298;49.246;9.410;2022-12-18T11:44:18;52.20;;;31.77;;
69185;SDS011;56298;49.246;9.410;2022-12-18T11:46:51;50.63;;;33.25;;
69185;SDS011;56298;49.246;9.410;2022-12-18T11:49:28;58.97;;;34.45;;
69185;SDS011;56298;49.246;9.410;2022-12-18T11:54:42;55.50;;;34.63;;
69185;SDS011;56298;49.246;9.410;2022-12-18T12:05:28;54.92;;;34.90;;
69185;SDS011;56298;49.246;9.410;2022-12-18T12:13:56;54.38;;;32.58;;
69185;SDS011;56298;49.246;9.410;2022-12-18T12:16:54;54.08;;;33.03;;
69185;SDS011;56298;49.246;9.410;2022-12-18T12:19:33;52.35;;;32.58;;
69185;SDS011;56298;49.246;9.410;2022-12-18T12:22:09;57.28;;;34.22;;
69185;SDS011;56298;49.246;9.410;2022-12-18T12:33:24;52.45;;;32.58;;
69185;SDS011;56298;49.246;9.410;2022-12-18T12:36:08;58.75;;;32.88;;
69185;SDS011;56298;49.246;9.410;2022-12-18T12:38:49;52.10;;;32.47;;
69185;SDS011;56298;49.246;9.410;2022-12-18T12:41:20;52.15;;;32.67;;
69185;SDS011;56298;49.246;9.410;2022-12-18T12:44:07;50.93;;;31.47;;
69185;SDS011;56298;49.246;9.410;2022-12-18T12:46:38;53.58;;;33.60;;
69185;SDS011;56298;49.246;9.410;2022-12-18T12:49:10;53.50;;;31.55;;
69185;SDS011;56298;49.246;9.410;2022-12-18T12:51:40;53.17;;;31.63;;
69185;SDS011;56298;49.246;9.410;2022-12-18T12:54:15;55.43;;;33.80;;
69185;SDS011;56298;49.246;9.410;2022-12-18T12:56:58;52.80;;;34.15;;
69185;SDS011;56298;49.246;9.410;2022-12-18T12:59:40;55.53;;;33.35;;
69185;SDS011;56298;49.246;9.410;2022-12-18T13:02:27;49.85;;;31.83;;
69185;SDS011;56298;49.246;9.410;2022-12-18T13:08:08;55.00;;;33.80;;
69185;SDS011;56298;49.246;9.410;2022-12-18T13:10:44;50.72;;;32.72;;
69185;SDS011;56298;49.246;9.410;2022-12-18T13:13:13;52.63;;;30.97;;
69185;SDS011;56298;49.246;9.410;2022-12-18T13:20:35;53.50;;;32.57;;
69185;SDS011;56298;49.246;9.410;2022-12-18T13:23:18;52.63;;;31.38;;
69185;SDS011;56298;49.246;9.410;2022-12-18T13:25:58;52.15;;;32.08;;
69185;SDS011;56298;49.246;9.410;2022-12-18T13:36:44;50.10;;;31.15;;
69185;SDS011;56298;49.246;9.410;2022-12-18T13:41:38;49.63;;;32.35;;
69185;SDS011;56298;49.246;9.410;2022-12-18T13:47:01;49.77;;;31.60;;
69185;SDS011;56298;49.246;9.410;2022-12-18T13:49:38;50.25;;;31.75;;
69185;SDS011;56298;49.246;9.410;2022-12-18T13:52:15;50.05;;;31.48;;
69185;SDS011;56298;49.246;9.410;2022-12-18T13:54:43;53.85;;;32.85;;
69185;SDS011;56298;49.246;9.410;2022-12-18T13:57:26;51.08;;;33.25;;
69185;SDS011;56298;49.246;9.410;2022-12-18T13:59:56;49.85;;;32.10;;
69185;SDS011;56298;49.246;9.410;2022-12-18T14:02:23;48.90;;;31.33;;
69185;SDS011;56298;49.246;9.410;2022-12-18T14:04:51;52.38;;;32.60;;
69185;SDS011;56298;49.246;9.410;2022-12-18T14:07:27;49.80;;;31.37;;
69185;SDS011;56298;49.246;9.410;2022-12-18T14:09:57;51.40;;;33.00;;
69185;SDS011;56298;49.246;9.410;2022-12-18T14:12:26;48.78;;;30.17;;
69185;SDS011;56298;49.246;9.410;2022-12-18T14:17:50;46.42;;;30.08;;
69185;SDS011;56298;49.246;9.410;2022-12-18T14:20:18;47.60;;;31.83;;
69185;SDS011;56298;49.246;9.410;2022-12-18T14:22:45;50.40;;;31.02;;
69185;SDS011;56298;49.246;9.410;2022-12-18T14:27:37;50.70;;;30.40;;
69185;SDS011;56298;49.246;9.410;2022-12-18T14:35:33;47.10;;;31.38;;
69185;SDS011;56298;49.246;9.410;2022-12-18T14:38:10;46.77;;;30.73;;
69185;SDS011;56298;49.246;9.410;2022-12-18T14:40:42;45.80;;;30.50;;
69185;SDS011;56298;49.246;9.410;2022-12-18T14:43:09;47.55;;;31.13;;
69185;SDS011;56298;49.246;9.410;2022-12-18T14:45:39;47.97;;;30.00;;
69185;SDS011;56298;49.246;9.410;2022-12-18T14:48:07;48.60;;;31.57;;
69185;SDS011;56298;49.246;9.410;2022-12-18T14:50:44;50.50;;;30.80;;
69185;SDS011;56298;49.246;9.410;2022-12-18T14:53:28;45.65;;;31.50;;
69185;SDS011;56298;49.246;9.410;2022-12-18T14:55:56;47.77;;;32.07;;
69185;SDS011;56298;49.246;9.410;2022-12-18T14:58:21;49.33;;;32.57;;
69185;SDS011;56298;49.246;9.410;2022-12-18T15:00:46;49.77;;;33.10;;
69185;SDS011;56298;49.246;9.410;2022-12-18T15:03:13;48.40;;;31.50;;
69185;SDS011;56298;49.246;9.410;2022-12-18T15:05:44;46.65;;;31.20;;
69185;SDS011;56298;49.246;9.410;2022-12-18T15:08:30;48.35;;;32.42;;
69185;SDS011;56298;49.246;9.410;2022-12-18T15:10:59;48.20;;;30.10;;
69185;SDS011;56298;49.246;9.410;2022-12-18T15:13:25;46.10;;;30.60;;
69185;SDS011;56298;49.246;9.410;2022-12-18T15:15:50;45.20;;;29.87;;
69185;SDS011;56298;49.246;9.410;2022-12-18T15:18:18;52.35;;;29.48;;
69185;SDS011;56298;49.246;9.410;2022-12-18T15:20:56;48.20;;;31.05;;
69185;SDS011;56298;49.246;9.410;2022-12-18T15:23:34;48.92;;;31.48;;
69185;SDS011;56298;49.246;9.410;2022-12-18T15:26:03;47.53;;;31.25;;
69185;SDS011;56298;49.246;9.410;2022-12-18T15:33:42;48.87;;;30.37;;
69185;SDS011;56298;49.246;9.410;2022-12-18T15:36:14;51.30;;;31.80;;
69185;SDS011;56298;49.246;9.410;2022-12-18T15:38:41;52.53;;;31.13;;
69185;SDS011;56298;49.246;9.410;2022-12-18T15:41:14;54.28;;;30.83;;
69185;SDS011;56298;49.246;9.410;2022-12-18T15:43:40;52.93;;;30.33;;
69185;SDS011;56298;49.246;9.410;2022-12-18T15:46:09;49.95;;;30.55;;
69185;SDS011;56298;49.246;9.410;2022-12-18T15:48:39;53.13;;;31.00;;
69185;SDS011;56298;49.246;9.410;2022-12-18T15:51:09;49.40;;;31.50;;
69185;SDS011;56298;49.246;9.410;2022-12-18T15:53:39;52.13;;;32.85;;
69185;SDS011;56298;49.246;9.410;2022-12-18T15:56:07;51.23;;;32.40;;
69185;SDS011;56298;49.246;9.410;2022-12-18T15:58:57;48.08;;;31.25;;
69185;SDS011;56298;49.246;9.410;2022-12-18T16:01:23;53.33;;;31.23;;
69185;SDS011;56298;49.246;9.410;2022-12-18T16:03:51;54.22;;;32.92;;
69185;SDS011;56298;49.246;9.410;2022-12-18T16:06:16;53.37;;;32.80;;
69185;SDS011;56298;49.246;9.410;2022-12-18T16:08:42;54.47;;;32.03;;
69185;SDS011;56298;49.246;9.410;2022-12-18T16:11:16;54.17;;;33.67;;
69185;SDS011;56298;49.246;9.410;2022-12-18T16:14:02;53.15;;;33.00;;
69185;SDS011;56298;49.246;9.410;2022-12-18T16:16:31;50.10;;;32.70;;
69185;SDS011;56298;49.246;9.410;2022-12-18T16:18:56;51.63;;;31.37;;
69185;SDS011;56298;49.246;9.410;2022-12-18T16:21:21;53.97;;;34.23;;
69185;SDS011;56298;49.246;9.410;2022-12-18T16:23:47;51.63;;;31.30;;
69185;SDS011;56298;49.246;9.410;2022-12-18T16:26:12;52.60;;;31.90;;
69185;SDS011;56298;49.246;9.410;2022-12-18T16:28:37;51.80;;;32.63;;
69185;SDS011;56298;49.246;9.410;2022-12-18T16:31:02;50.90;;;32.10;;
69185;SDS011;56298;49.246;9.410;2022-12-18T16:33:28;54.70;;;32.40;;
69185;SDS011;56298;49.246;9.410;2022-12-18T16:35:53;51.80;;;33.30;;
69185;SDS011;56298;49.246;9.410;2022-12-18T16:38:18;53.37;;;32.23;;